Ana Sayfa
METAR-TAF:

METAR-TAF

Havaalanları :

Nakşa, Yunanistan

Enlem: 37-04-47N, Boylam: 025-22-01E, yükseklik: 3 m

Güncel hava durumu gözlemi

Rapor saat 05:20 UTC de 19 dakika önce yapıldı.
Rüzgar güney/güneydoğudan 7 kt
Sıcaklık 19°C
Nem 88%
Basınç 1017 hPa
Görüş mesafesi 10 km veya daha fazla
2000 ft yükseklikte parçalı bulutlu

METAR: LGNX 180520Z 15007KT 9999 SCT020 19/17 Q1017

Saat: 07:39 (05:39 UTC)


TAF: eksik

4.000'den fazla havaalanı için hava durumu gözlemleri ve tahminleri (METAR ve TAF raporları).

Kullanılabilir istasyonlar harita üzerinde sarı ve kırmızı noktalarla gösterilir.

İstasyonun adını görmek için fareyi noktanın üzerinde gezdirin.

Sonrasında hava gözlem ve tahminlerini görmek için tıklayın.

Haritayı değiştirmek için: yaklaştırmak için siyah artı işaretli yeşil düğmeye ve uzaklaştırmak için de eksi işaretli düğmeye hızla tıklayın; bitişik haritalar için yeşil okları kullanın.


METAR-TAF: